Time;durP1;ratioP1;P1;durP2;ratioP2;P2;SDS_P1;SDS_P2;PMS_P1;PMS_P2;Temp;Humidity;BMP_temperature;BMP_pressure;BME280_temperature;BME280_humidity;BME280_pressure;Samples;Min_cycle;Max_cycle;Signal;HPM_P1;HPM_P2
2021/09/14 00:00:06;;;;;;;5.90;3.13;;;;;;;14.07;85.75;101807.00;693912;28;943;-63
2021/09/14 00:00:26;;;;;;;6.00;3.20;;;;;;;14.07;85.66;101808.81;693894;28;1574;-63
2021/09/14 00:00:52;;;;;;;5.22;3.00;;;;;;;14.06;85.40;101810.59;693801;28;888;-63
2021/09/14 00:01:12;;;;;;;5.55;3.08;;;;;;;14.07;85.60;101806.16;693835;28;936;-63
2021/09/14 00:01:32;;;;;;;5.65;3.13;;;;;;;14.07;85.60;101808.81;693861;28;1034;-63
2021/09/14 00:01:59;;;;;;;6.47;3.20;;;;;;;14.07;85.48;101799.06;693733;28;1263;-63
2021/09/14 00:02:19;;;;;;;6.28;3.13;;;;;;;14.08;85.29;101800.81;693865;28;812;-63
2021/09/14 00:02:39;;;;;;;5.20;3.00;;;;;;;14.08;85.42;101808.75;693351;28;1773;-63
2021/09/14 00:03:00;;;;;;;4.93;2.63;;;;;;;14.05;85.25;101800.94;693360;28;1278;-63
2021/09/14 00:03:20;;;;;;;4.97;2.85;;;;;;;14.06;85.35;101800.00;693691;28;911;-63
2021/09/14 00:03:40;;;;;;;5.30;2.83;;;;;;;14.05;85.48;101795.63;693621;28;1047;-64
2021/09/14 00:04:01;;;;;;;5.77;2.93;;;;;;;14.06;85.27;101800.00;693674;28;887;-63
2021/09/14 00:04:21;;;;;;;6.00;3.15;;;;;;;14.04;85.59;101799.22;691004;28;876;-64
2021/09/14 00:04:44;;;;;;;5.97;3.10;;;;;;;14.04;85.53;101790.38;693704;28;844;-64
2021/09/14 00:05:08;;;;;;;6.65;3.05;;;;;;;14.04;85.47;101791.25;693649;28;959;-64
2021/09/14 00:05:37;;;;;;;6.70;2.97;;;;;;;14.04;85.25;101791.25;693585;28;954;-64
2021/09/14 00:05:58;;;;;;;6.82;3.03;;;;;;;14.00;85.34;101787.88;693682;28;1014;-64
2021/09/14 00:06:28;;;;;;;6.32;3.10;;;;;;;14.00;85.65;101784.34;693152;28;1301;-63
2021/09/14 00:06:48;;;;;;;6.50;3.15;;;;;;;14.00;85.25;101787.88;693690;28;1106;-63
2021/09/14 00:07:08;;;;;;;6.33;3.20;;;;;;;14.02;85.38;101793.09;693880;28;776;-64
2021/09/14 00:07:29;;;;;;;5.78;3.13;;;;;;;14.04;85.43;101779.78;693895;28;991;-63
2021/09/14 00:07:49;;;;;;;5.40;2.83;;;;;;;14.03;85.61;101781.56;693881;28;1022;-63
2021/09/14 00:08:09;;;;;;;5.38;2.90;;;;;;;14.02;85.26;101788.66;693782;28;820;-63
2021/09/14 00:08:30;;;;;;;5.43;3.00;;;;;;;14.04;85.38;101785.06;693987;28;875;-63
2021/09/14 00:08:50;;;;;;;6.10;3.10;;;;;;;14.03;85.32;101778.91;695043;28;1302;-63
2021/09/14 00:09:16;;;;;;;6.45;2.80;;;;;;;14.03;85.40;101784.22;696421;28;869;-65
2021/09/14 00:09:37;;;;;;;6.93;3.05;;;;;;;14.04;85.28;101788.59;696691;28;948;-64
2021/09/14 00:09:59;;;;;;;7.20;3.17;;;;;;;14.04;85.30;101785.97;696555;28;1034;-63
2021/09/14 00:10:19;;;;;;;5.88;3.15;;;;;;;14.04;85.33;101785.97;696640;28;876;-63
2021/09/14 00:10:40;;;;;;;7.20;3.40;;;;;;;14.00;85.20;101789.63;696636;28;979;-64
2021/09/14 00:11:00;;;;;;;6.82;3.17;;;;;;;14.01;85.40;101789.59;696378;28;994;-63
2021/09/14 00:11:20;;;;;;;6.73;3.20;;;;;;;14.02;85.27;101782.50;696603;28;999;-64
2021/09/14 00:11:41;;;;;;;6.47;3.23;;;;;;;14.02;85.16;101787.81;696697;28;834;-63
2021/09/14 00:12:01;;;;;;;5.50;3.20;;;;;;;14.02;85.39;101783.34;696464;28;999;-62
2021/09/14 00:13:12;;;;;;;6.28;3.10;;;;;;;13.98;85.07;101792.38;693312;28;1275;-64
2021/09/14 00:13:35;;;;;;;5.53;2.80;;;;;;;13.95;85.42;101784.53;696656;28;979;-63
2021/09/14 00:13:55;;;;;;;6.03;2.95;;;;;;;13.94;85.33;101787.25;696565;28;1967;-64
2021/09/14 00:14:18;;;;;;;5.53;3.13;;;;;;;13.94;85.44;101788.13;698419;28;1045;-63
2021/09/14 00:14:38;;;;;;;5.65;3.03;;;;;;;13.94;85.61;101787.25;696667;28;1018;-63
2021/09/14 00:14:59;;;;;;;5.53;3.10;;;;;;;13.94;85.46;101790.78;696533;28;832;-63
2021/09/14 00:15:19;;;;;;;5.57;3.20;;;;;;;13.95;85.55;101781.03;696567;28;939;-63
2021/09/14 00:15:39;;;;;;;5.77;3.17;;;;;;;13.92;85.31;101783.81;696609;28;812;-64
2021/09/14 00:16:00;;;;;;;5.40;3.10;;;;;;;13.94;85.41;101784.63;696588;28;975;-63
2021/09/14 00:16:23;;;;;;;5.93;3.40;;;;;;;13.96;85.44;101788.03;696628;28;904;-63
2021/09/14 00:16:43;;;;;;;6.03;3.13;;;;;;;13.98;85.24;101796.81;695748;28;1526;-64
2021/09/14 00:17:04;;;;;;;6.73;3.10;;;;;;;13.98;85.49;101788.84;696568;28;907;-63
2021/09/14 00:17:24;;;;;;;5.63;3.03;;;;;;;13.96;85.33;101785.38;696543;28;935;-63
2021/09/14 00:17:44;;;;;;;5.70;3.07;;;;;;;13.97;85.22;101789.75;696562;28;830;-63
2021/09/14 00:18:05;;;;;;;8.03;3.40;;;;;;;13.97;85.17;101789.75;696667;28;814;-63
2021/09/14 00:18:25;;;;;;;7.90;3.35;;;;;;;13.98;85.36;101791.50;695731;28;1463;-63
2021/09/14 00:18:46;;;;;;;6.40;3.20;;;;;;;13.96;85.24;101790.69;693852;28;994;-63
2021/09/14 00:19:06;;;;;;;5.72;3.08;;;;;;;13.95;85.12;101794.28;693840;28;916;-63
2021/09/14 00:19:26;;;;;;;5.33;2.93;;;;;;;13.95;85.28;101791.63;693761;28;928;-63
2021/09/14 00:19:46;;;;;;;6.63;3.17;;;;;;;13.94;85.22;101795.22;693901;28;805;-64
2021/09/14 00:20:10;;;;;;;5.53;3.20;;;;;;;13.92;85.22;101791.75;693912;28;983;-63
2021/09/14 00:20:30;;;;;;;5.88;3.20;;;;;;;13.93;85.23;101789.03;693677;28;1261;-63
2021/09/14 00:20:51;;;;;;;5.78;3.20;;;;;;;13.96;85.40;101793.34;693806;28;1002;-63
2021/09/14 00:21:11;;;;;;;6.10;3.20;;;;;;;13.93;85.03;101793.47;695480;28;1515;-63
2021/09/14 00:21:34;;;;;;;6.03;3.20;;;;;;;13.90;85.40;101790.94;696458;28;962;-63
2021/09/14 00:21:54;;;;;;;6.43;3.15;;;;;;;13.91;85.25;101790.03;696676;28;892;-64
2021/09/14 00:22:17;;;;;;;6.77;3.10;;;;;;;13.91;85.10;101790.03;696398;28;1254;-63
2021/09/14 00:22:38;;;;;;;5.63;3.15;;;;;;;13.92;85.26;101802.34;696421;28;1391;-64
2021/09/14 00:22:58;;;;;;;6.37;3.20;;;;;;;13.91;85.13;101797.97;696118;28;1451;-64
2021/09/14 00:23:18;;;;;;;6.80;3.17;;;;;;;13.91;85.30;101805.94;696505;28;828;-63
2021/09/14 00:23:39;;;;;;;6.53;3.10;;;;;;;13.90;85.31;101798.88;696597;28;811;-64
2021/09/14 00:24:02;;;;;;;6.77;3.10;;;;;;;13.91;85.38;101795.34;696624;28;907;-62
2021/09/14 00:24:22;;;;;;;6.00;3.10;;;;;;;13.91;85.30;101798.84;696583;28;899;-64
2021/09/14 00:24:42;;;;;;;5.87;3.20;;;;;;;13.93;85.22;101798.75;696615;28;883;-63
2021/09/14 00:25:03;;;;;;;6.95;3.20;;;;;;;13.94;85.19;101800.50;696541;28;924;-63
2021/09/14 00:25:23;;;;;;;5.43;3.03;;;;;;;13.92;85.40;101797.91;696474;28;1029;-63
2021/09/14 00:25:44;;;;;;;5.80;3.23;;;;;;;13.92;85.37;101797.06;696513;28;955;-64
2021/09/14 00:26:04;;;;;;;6.27;3.40;;;;;;;13.93;85.31;101796.13;696542;28;803;-63
2021/09/14 00:26:24;;;;;;;5.97;3.33;;;;;;;13.92;85.31;101791.75;696577;28;1034;-64
2021/09/14 00:26:44;;;;;;;5.80;3.20;;;;;;;13.93;85.36;101798.75;694414;28;1565;-63
2021/09/14 00:27:05;;;;;;;6.05;3.15;;;;;;;13.91;85.29;101795.34;693643;28;1062;-63
2021/09/14 00:27:25;;;;;;;6.50;3.40;;;;;;;13.90;85.38;101793.59;693938;28;854;-64
2021/09/14 00:27:45;;;;;;;7.10;3.30;;;;;;;13.91;85.31;101795.34;693762;28;879;-63
2021/09/14 00:28:06;;;;;;;6.90;3.07;;;;;;;13.92;85.28;101795.25;693743;28;1015;-63
2021/09/14 00:28:29;;;;;;;5.40;3.40;;;;;;;13.93;85.35;101798.75;693896;28;800;-62
2021/09/14 00:28:52;;;;;;;5.68;3.10;;;;;;;13.94;85.13;101795.22;693711;28;1092;-63
2021/09/14 00:29:12;;;;;;;5.38;3.13;;;;;;;13.92;85.46;101797.91;693785;28;955;-63
2021/09/14 00:29:32;;;;;;;7.17;3.70;;;;;;;13.92;85.39;101797.06;693797;28;826;-63
2021/09/14 00:29:52;;;;;;;6.80;3.40;;;;;;;13.95;85.16;101796.94;693587;28;955;-63
2021/09/14 00:30:13;;;;;;;5.77;3.10;;;;;;;13.94;85.16;101800.50;693924;28;915;-64
2021/09/14 00:30:36;;;;;;;5.20;3.13;;;;;;;13.95;85.00;101799.56;693905;28;857;-64
2021/09/14 00:30:56;;;;;;;6.68;3.10;;;;;;;13.92;85.08;101797.06;693741;28;912;-64
2021/09/14 00:31:16;;;;;;;7.87;3.27;;;;;;;13.92;85.11;101797.91;693855;28;870;-63
2021/09/14 00:31:37;;;;;;;6.40;3.10;;;;;;;13.92;85.34;101802.34;693906;28;870;-63
2021/09/14 00:32:03;;;;;;;6.47;3.00;;;;;;;13.93;85.31;101802.28;693665;28;872;-63
2021/09/14 00:32:23;;;;;;;6.15;3.20;;;;;;;13.92;85.10;101794.41;693851;28;1014;-64
2021/09/14 00:32:43;;;;;;;6.83;3.20;;;;;;;13.92;84.98;101797.06;693389;28;895;-63
2021/09/14 00:33:03;;;;;;;5.37;3.03;;;;;;;13.92;85.08;101797.06;693556;28;1271;-63
2021/09/14 00:33:24;;;;;;;5.25;3.20;;;;;;;13.93;85.23;101802.28;693863;28;1054;-63
2021/09/14 00:33:44;;;;;;;6.47;3.27;;;;;;;13.93;85.10;101794.31;693650;28;2008;-63
2021/09/14 00:34:07;;;;;;;6.60;3.27;;;;;;;13.92;85.32;101799.69;693784;28;895;-62
2021/09/14 00:34:27;;;;;;;5.60;3.10;;;;;;;13.95;85.26;101796.94;693893;28;906;-63
2021/09/14 00:34:47;;;;;;;5.47;3.13;;;;;;;13.93;85.23;101793.47;693397;28;1197;-63
2021/09/14 00:35:08;;;;;;;6.47;3.43;;;;;;;13.92;85.24;101797.06;693291;28;988;-62
2021/09/14 00:35:28;;;;;;;7.03;3.65;;;;;;;13.91;84.88;101797.97;693415;28;973;-63
2021/09/14 00:35:49;;;;;;;7.93;3.70;;;;;;;13.91;85.06;101797.97;693730;28;732;-64
2021/09/14 00:36:09;;;;;;;7.20;3.53;;;;;;;13.90;85.33;101798.88;693803;28;851;-62
2021/09/14 00:36:29;;;;;;;7.75;3.60;;;;;;;13.90;85.19;101801.53;693794;28;863;-63
2021/09/14 00:36:50;;;;;;;6.33;3.37;;;;;;;13.90;85.03;101796.25;695852;28;1478;-64
2021/09/14 00:37:10;;;;;;;6.03;3.23;;;;;;;13.91;85.29;101800.63;696250;28;1381;-61
2021/09/14 00:37:30;;;;;;;5.57;3.20;;;;;;;13.89;85.16;101794.53;693795;28;1009;-62
2021/09/14 00:37:50;;;;;;;5.67;3.40;;;;;;;13.87;85.43;101788.44;693916;28;895;-62
2021/09/14 00:38:11;;;;;;;6.57;3.33;;;;;;;13.85;85.25;101796.44;693748;28;921;-63
2021/09/14 00:38:31;;;;;;;6.70;3.33;;;;;;;13.86;85.37;101799.94;693503;28;986;-63
2021/09/14 00:38:51;;;;;;;6.23;3.47;;;;;;;13.88;85.20;101795.44;693609;28;804;-63
2021/09/14 00:39:14;;;;;;;6.20;3.47;;;;;;;13.89;85.30;101799.81;693570;28;983;-63
2021/09/14 00:39:35;;;;;;;6.45;3.55;;;;;;;13.89;85.33;101799.81;693621;28;852;-63
2021/09/14 00:39:56;;;;;;;6.90;3.57;;;;;;;13.84;85.40;101797.38;693626;28;935;-63
2021/09/14 00:40:19;;;;;;;6.55;3.60;;;;;;;13.86;85.49;101797.28;693383;28;1243;-63
2021/09/14 00:40:39;;;;;;;6.15;3.38;;;;;;;13.85;85.62;101798.22;693841;28;1539;-63
2021/09/14 00:40:59;;;;;;;5.83;3.30;;;;;;;13.83;85.44;101798.28;693739;28;857;-63
2021/09/14 00:41:20;;;;;;;6.22;3.40;;;;;;;13.83;85.52;101797.41;693683;28;856;-62
2021/09/14 00:41:40;;;;;;;5.50;3.40;;;;;;;13.82;85.36;101793.91;693810;28;895;-62
2021/09/14 00:42:00;;;;;;;5.57;3.50;;;;;;;13.81;85.43;101794.84;693728;28;1214;-62
2021/09/14 00:42:21;;;;;;;6.88;3.63;;;;;;;13.83;85.40;101795.63;693684;28;984;-63
2021/09/14 00:42:41;;;;;;;6.97;3.57;;;;;;;13.83;85.64;101797.41;693602;28;820;-63
2021/09/14 00:43:04;;;;;;;6.28;3.65;;;;;;;13.84;85.44;101799.16;693436;28;1308;-63
2021/09/14 00:43:25;;;;;;;7.00;3.55;;;;;;;13.81;85.34;101799.28;693843;28;903;-67
2021/09/14 00:43:59;;;;;;;6.72;3.60;;;;;;;13.82;85.61;101796.56;693782;28;987;-63
2021/09/14 00:44:19;;;;;;;6.57;3.55;;;;;;;13.81;85.75;101799.28;693600;28;1137;-63
2021/09/14 00:44:39;;;;;;;5.53;3.33;;;;;;;13.82;85.63;101795.69;693809;28;943;-64
2021/09/14 00:45:00;;;;;;;6.63;3.60;;;;;;;13.83;85.75;101794.75;693735;28;859;-63
2021/09/14 00:45:23;;;;;;;5.68;3.42;;;;;;;13.79;85.68;101788.72;693636;28;1178;-64
2021/09/14 00:45:43;;;;;;;6.15;3.42;;;;;;;13.77;85.70;101795.88;693833;28;943;-64
2021/09/14 00:46:04;;;;;;;6.40;3.40;;;;;;;13.80;85.64;101800.19;693631;28;1340;-63
2021/09/14 00:46:24;;;;;;;5.82;3.60;;;;;;;13.80;85.88;101793.13;693697;28;1078;-63
2021/09/14 00:46:47;;;;;;;7.10;3.77;;;;;;;13.81;85.57;101796.63;694767;28;1542;-64
2021/09/14 00:47:07;;;;;;;6.88;3.63;;;;;;;13.80;85.80;101789.59;696246;28;1537;-63
2021/09/14 00:47:28;;;;;;;5.93;3.63;;;;;;;13.81;85.70;101794.84;696531;28;856;-63
2021/09/14 00:47:48;;;;;;;6.10;3.57;;;;;;;13.82;85.77;101791.25;696558;28;891;-63
2021/09/14 00:48:08;;;;;;;5.93;3.50;;;;;;;13.83;85.73;101792.09;696635;28;833;-64
2021/09/14 00:48:29;;;;;;;7.03;3.55;;;;;;;13.81;85.66;101789.53;696407;28;951;-63
2021/09/14 00:48:49;;;;;;;5.73;3.30;;;;;;;13.77;85.68;101791.44;696516;28;780;-63
2021/09/14 00:49:10;;;;;;;5.53;3.40;;;;;;;13.80;85.48;101784.28;696574;28;840;-63
2021/09/14 00:49:30;;;;;;;6.43;3.43;;;;;;;13.83;85.74;101794.75;696561;28;830;-63
2021/09/14 00:49:50;;;;;;;5.68;3.58;;;;;;;13.80;85.67;101792.22;696489;28;824;-64
2021/09/14 00:50:12;;;;;;;6.00;3.67;;;;;;;13.81;85.60;101788.69;696624;28;987;-64
2021/09/14 00:50:39;;;;;;;6.05;3.63;;;;;;;13.80;85.78;101787.81;696443;28;982;-63
2021/09/14 00:51:02;;;;;;;5.70;3.50;;;;;;;13.82;85.79;101785.09;696198;28;1474;-63
2021/09/14 00:51:23;;;;;;;5.90;3.47;;;;;;;13.80;85.71;101786.94;693711;28;947;-63
2021/09/14 00:51:46;;;;;;;5.22;3.25;;;;;;;13.81;85.62;101784.25;693599;28;1540;-64
2021/09/14 00:52:10;;;;;;;5.43;3.45;;;;;;;13.81;85.71;101784.25;693845;28;1021;-62
2021/09/14 00:52:30;;;;;;;6.88;3.90;;;;;;;13.81;85.83;101788.69;693731;28;895;-64
2021/09/14 00:52:50;;;;;;;8.10;3.97;;;;;;;13.81;85.73;101786.03;693268;28;1355;-63
2021/09/14 00:53:13;;;;;;;7.50;3.70;;;;;;;13.80;85.39;101785.16;693766;28;1141;-63
2021/09/14 00:53:34;;;;;;;6.72;3.70;;;;;;;13.82;85.57;101779.78;693678;28;903;-63
2021/09/14 00:53:55;;;;;;;6.13;3.57;;;;;;;13.85;85.37;101790.28;693804;28;1906;-63
2021/09/14 00:54:16;;;;;;;7.40;3.88;;;;;;;13.83;85.42;101779.72;693798;28;836;-63
2021/09/14 00:54:38;;;;;;;6.28;3.70;;;;;;;13.79;85.53;101786.06;693803;28;867;-64
2021/09/14 00:54:58;;;;;;;5.82;3.63;;;;;;;13.83;85.33;101781.50;693692;28;852;-64
2021/09/14 00:55:20;;;;;;;6.33;3.60;;;;;;;13.83;85.60;101786.81;693607;28;1042;-63
2021/09/14 00:55:41;;;;;;;7.05;3.88;;;;;;;13.82;85.31;101785.09;693837;28;914;-64
2021/09/14 00:56:01;;;;;;;6.90;3.72;;;;;;;13.83;85.66;101786.81;693548;28;1307;-64
2021/09/14 00:56:25;;;;;;;6.07;3.60;;;;;;;13.82;85.49;101790.41;693550;28;939;-64
2021/09/14 00:56:45;;;;;;;5.95;3.75;;;;;;;13.81;85.47;101786.03;693557;28;935;-63
2021/09/14 00:57:11;;;;;;;6.03;3.40;;;;;;;13.82;85.54;101795.69;693414;28;845;-63
2021/09/14 00:57:31;;;;;;;6.50;3.50;;;;;;;13.82;85.48;101788.59;693632;28;1030;-63
2021/09/14 00:57:52;;;;;;;6.60;3.37;;;;;;;13.81;85.56;101788.69;693729;28;857;-63
2021/09/14 00:58:12;;;;;;;6.20;3.55;;;;;;;13.82;85.59;101791.25;693584;28;1401;-63
2021/09/14 00:58:32;;;;;;;7.00;3.70;;;;;;;13.82;85.61;101788.59;693804;28;865;-64
2021/09/14 00:58:53;;;;;;;6.80;3.50;;;;;;;13.83;85.48;101792.09;693797;28;1463;-63
2021/09/14 00:59:13;;;;;;;6.55;3.70;;;;;;;13.83;85.37;101792.09;693806;28;907;-64
2021/09/14 00:59:36;;;;;;;5.60;3.60;;;;;;;13.81;85.42;101783.38;693688;28;979;-63
2021/09/14 00:59:56;;;;;;;6.38;3.60;;;;;;;13.81;85.57;101783.38;693669;28;935;-64
2021/09/14 01:00:16;;;;;;;6.70;3.50;;;;;;;13.82;85.20;101790.41;693878;28;832;-64
2021/09/14 01:00:37;;;;;;;6.65;3.40;;;;;;;13.82;85.29;101782.44;693819;28;947;-64
2021/09/14 01:00:57;;;;;;;7.27;3.50;;;;;;;13.80;85.24;101781.63;693628;28;924;-64
2021/09/14 01:01:18;;;;;;;6.07;3.50;;;;;;;13.82;85.50;101785.94;693714;28;1032;-62
2021/09/14 01:01:38;;;;;;;7.00;3.80;;;;;;;13.82;85.60;101785.09;693893;28;903;-63
2021/09/14 01:01:59;;;;;;;7.05;3.58;;;;;;;13.82;85.51;101787.75;693731;28;890;-63
2021/09/14 01:02:19;;;;;;;6.17;3.40;;;;;;;13.82;85.37;101785.09;693859;28;986;-64
2021/09/14 01:02:39;;;;;;;6.20;3.70;;;;;;;13.79;85.19;101780.78;693386;28;1292;-63
2021/09/14 01:03:00;;;;;;;6.68;3.70;;;;;;;13.78;85.47;101771.97;693694;28;1282;-64
2021/09/14 01:03:20;;;;;;;6.77;3.57;;;;;;;13.78;85.43;101779.91;693630;28;863;-64
2021/09/14 01:03:40;;;;;;;6.33;3.60;;;;;;;13.78;85.41;101781.72;693722;28;971;-65
2021/09/14 01:04:01;;;;;;;6.03;3.90;;;;;;;13.75;85.33;101782.69;693679;28;1407;-64
2021/09/14 01:04:22;;;;;;;6.30;3.83;;;;;;;13.77;85.25;101778.19;693918;28;912;-63
2021/09/14 01:04:42;;;;;;;6.10;3.50;;;;;;;13.78;85.15;101779.06;693844;28;863;-62
2021/09/14 01:05:03;;;;;;;6.37;3.20;;;;;;;13.81;85.53;101775.44;693701;28;1086;-63
2021/09/14 01:05:24;;;;;;;6.38;3.70;;;;;;;13.81;85.14;101778.09;693569;28;1027;-64
2021/09/14 01:05:44;;;;;;;6.68;3.67;;;;;;;13.80;85.32;101779.88;693753;28;818;-63
2021/09/14 01:06:05;;;;;;;5.97;3.63;;;;;;;13.80;85.23;101778.97;693965;28;1091;-63
2021/09/14 01:06:25;;;;;;;6.07;3.60;;;;;;;13.79;85.15;101775.47;693751;28;824;-64
2021/09/14 01:06:46;;;;;;;6.82;3.50;;;;;;;13.80;85.02;101776.34;693853;28;805;-63
2021/09/14 01:07:09;;;;;;;7.07;3.40;;;;;;;13.82;85.05;101774.50;693788;28;966;-64
2021/09/14 01:07:31;;;;;;;6.75;3.60;;;;;;;13.81;85.22;101765.69;693611;28;959;-63
2021/09/14 01:07:52;;;;;;;6.78;3.80;;;;;;;13.82;85.06;101775.34;693881;28;967;-63
2021/09/14 01:08:13;;;;;;;7.07;3.95;;;;;;;13.81;85.07;101772.78;693775;28;1018;-63
2021/09/14 01:08:36;;;;;;;7.27;4.00;;;;;;;13.80;85.21;101771.91;693736;28;1025;-64
2021/09/14 01:08:59;;;;;;;7.07;3.90;;;;;;;13.79;84.95;101770.19;693850;28;832;-64
2021/09/14 01:09:21;;;;;;;7.80;4.00;;;;;;;13.77;84.88;101766.75;693559;28;1093;-63
2021/09/14 01:09:43;;;;;;;8.30;3.90;;;;;;;13.77;85.15;101778.19;693895;28;947;-64
2021/09/14 01:10:03;;;;;;;8.75;4.20;;;;;;;13.73;85.08;101768.66;693784;28;1050;-64
2021/09/14 01:10:23;;;;;;;7.10;3.72;;;;;;;13.73;85.30;101767.81;693604;28;976;-63
2021/09/14 01:10:44;;;;;;;6.90;3.90;;;;;;;13.72;85.20;101769.56;693714;28;1542;-63
2021/09/14 01:11:05;;;;;;;7.55;3.70;;;;;;;13.73;85.25;101773.09;696117;28;1474;-63
2021/09/14 01:11:29;;;;;;;6.60;3.50;;;;;;;13.73;85.27;101770.44;696444;28;930;-63
2021/09/14 01:11:52;;;;;;;6.20;3.70;;;;;;;13.73;85.01;101771.31;696536;28;955;-64
2021/09/14 01:12:12;;;;;;;8.38;3.83;;;;;;;13.73;85.26;101768.66;696489;28;991;-63
2021/09/14 01:12:32;;;;;;;7.20;3.60;;;;;;;13.74;85.39;101772.16;696613;28;911;-64
2021/09/14 01:12:55;;;;;;;6.47;3.60;;;;;;;13.74;85.39;101778.31;695859;28;1287;-63
2021/09/14 01:13:15;;;;;;;6.60;3.72;;;;;;;13.73;85.24;101770.44;696344;28;821;-64
2021/09/14 01:13:35;;;;;;;6.87;3.80;;;;;;;13.73;85.36;101776.59;696491;28;927;-63
2021/09/14 01:14:00;;;;;;;8.00;3.83;;;;;;;13.71;85.08;101775.78;696438;28;1910;-63
2021/09/14 01:14:21;;;;;;;7.38;3.78;;;;;;;13.69;85.08;101769.69;696404;28;1042;-64
2021/09/14 01:14:53;;;;;;;7.27;3.83;;;;;;;13.69;85.01;101780.28;696540;28;1040;-64
2021/09/14 01:15:14;;;;;;;7.70;3.35;;;;;;;13.69;85.47;101774.13;696365;28;1658;-63
2021/09/14 01:15:34;;;;;;;6.53;3.37;;;;;;;13.68;85.25;101773.25;696417;28;935;-64
2021/09/14 01:15:55;;;;;;;7.07;3.95;;;;;;;13.69;85.14;101774.97;695404;28;1534;-63
2021/09/14 01:16:15;;;;;;;6.80;4.00;;;;;;;13.70;85.29;101770.56;693690;28;1337;-64
2021/09/14 01:16:38;;;;;;;7.00;3.80;;;;;;;13.67;85.33;101770.69;693729;28;1050;-63
2021/09/14 01:16:58;;;;;;;6.35;3.90;;;;;;;13.67;85.17;101771.53;693572;28;1043;-64
2021/09/14 01:17:18;;;;;;;6.03;3.60;;;;;;;13.68;85.15;101775.91;693609;28;994;-62
2021/09/14 01:17:41;;;;;;;6.37;3.80;;;;;;;13.66;85.40;101775.13;693675;28;986;-63
2021/09/14 01:18:03;;;;;;;6.93;3.67;;;;;;;13.67;85.23;101776.84;693677;28;874;-63
2021/09/14 01:18:24;;;;;;;6.13;3.58;;;;;;;13.66;85.24;101774.25;693642;28;995;-63
2021/09/14 01:18:44;;;;;;;6.93;3.87;;;;;;;13.68;85.38;101777.69;693725;28;866;-63
2021/09/14 01:19:11;;;;;;;7.13;3.80;;;;;;;13.67;85.19;101776.84;693700;28;1171;-63
2021/09/14 01:19:31;;;;;;;6.90;3.97;;;;;;;13.69;85.33;101777.63;693479;28;1479;-62
2021/09/14 01:19:51;;;;;;;8.10;3.90;;;;;;;13.71;85.06;101774.94;694727;28;1465;-64
2021/09/14 01:20:17;;;;;;;7.70;3.70;;;;;;;13.71;85.03;101775.78;693807;28;976;-63
2021/09/14 01:20:38;;;;;;;6.90;3.72;;;;;;;13.71;84.98;101775.78;693663;28;939;-63
2021/09/14 01:20:59;;;;;;;6.87;3.60;;;;;;;13.72;85.02;101780.16;693848;28;1554;-63
2021/09/14 01:21:22;;;;;;;6.63;3.70;;;;;;;13.71;84.97;101778.44;693803;28;1494;-63
2021/09/14 01:21:43;;;;;;;6.32;3.67;;;;;;;13.71;84.88;101778.44;693628;28;1014;-63
2021/09/14 01:22:03;;;;;;;6.50;3.78;;;;;;;13.72;84.99;101780.16;693711;28;971;-63
2021/09/14 01:22:36;;;;;;;6.05;3.80;;;;;;;13.71;85.10;101778.44;693766;28;1042;-62
2021/09/14 01:22:57;;;;;;;8.35;3.90;;;;;;;13.72;84.88;101780.16;692297;28;1305;-63
2021/09/14 01:23:17;;;;;;;7.03;3.80;;;;;;;13.73;84.84;101779.25;695639;28;1574;-64
2021/09/14 01:23:43;;;;;;;6.50;3.80;;;;;;;13.73;84.78;101779.25;696369;28;814;-64
2021/09/14 01:24:04;;;;;;;7.95;3.92;;;;;;;13.69;84.75;101776.78;696415;28;942;-63
2021/09/14 01:24:27;;;;;;;6.82;4.00;;;;;;;13.69;84.78;101776.78;696462;28;833;-64
2021/09/14 01:24:48;;;;;;;6.85;3.90;;;;;;;13.69;84.94;101777.63;696418;28;840;-63
2021/09/14 01:25:20;;;;;;;7.40;3.80;;;;;;;13.67;84.86;101776.84;696514;28;973;-64
2021/09/14 01:25:40;;;;;;;7.90;4.00;;;;;;;13.64;84.80;101774.31;696350;28;950;-64
2021/09/14 01:26:00;;;;;;;7.73;3.90;;;;;;;13.67;84.87;101774.19;696419;28;927;-63
2021/09/14 01:26:21;;;;;;;6.53;3.67;;;;;;;13.69;84.64;101774.97;696489;28;855;-64
2021/09/14 01:26:42;;;;;;;7.45;4.03;;;;;;;13.68;84.70;101775.91;696485;28;1011;-63
2021/09/14 01:27:02;;;;;;;6.63;3.90;;;;;;;13.69;84.67;101774.97;696540;28;879;-63
2021/09/14 01:27:22;;;;;;;7.07;3.87;;;;;;;13.70;84.70;101776.72;696314;28;1125;-64
2021/09/14 01:27:43;;;;;;;7.07;4.00;;;;;;;13.70;84.83;101770.56;696462;28;876;-64
2021/09/14 01:28:15;;;;;;;7.40;4.17;;;;;;;13.71;84.58;101775.78;696431;28;859;-63
2021/09/14 01:28:41;;;;;;;5.88;3.50;;;;;;;13.70;84.65;101768.78;696391;28;1043;-65
2021/09/14 01:29:09;;;;;;;7.38;4.03;;;;;;;13.72;84.69;101768.69;696455;28;1002;-64
2021/09/14 01:30:19;;;;;;;8.15;4.00;;;;;;;13.73;84.68;101770.44;696349;28;726;-63
2021/09/14 01:30:39;;;;;;;7.70;3.90;;;;;;;13.72;84.42;101769.56;696515;28;832;-63
2021/09/14 01:31:00;;;;;;;7.67;4.03;;;;;;;13.74;84.39;101769.50;696516;28;978;-63
2021/09/14 01:31:23;;;;;;;7.47;4.10;;;;;;;13.73;84.35;101768.66;696523;28;951;-63
2021/09/14 01:31:44;;;;;;;6.95;3.90;;;;;;;13.75;84.57;101768.59;696460;28;1081;-64
2021/09/14 01:32:07;;;;;;;6.77;4.00;;;;;;;13.74;84.30;101772.16;696456;28;930;-64
2021/09/14 01:32:27;;;;;;;7.75;3.95;;;;;;;13.74;84.56;101767.72;696499;28;848;-64
2021/09/14 01:32:53;;;;;;;7.00;3.53;;;;;;;13.73;84.38;101766.00;695569;28;1312;-62
2021/09/14 01:33:15;;;;;;;6.55;3.75;;;;;;;13.73;84.45;101766.00;696543;28;942;-64
2021/09/14 01:33:35;;;;;;;9.10;4.18;;;;;;;13.78;84.48;101768.47;696478;28;1014;-63
2021/09/14 01:33:55;;;;;;;7.57;4.10;;;;;;;13.76;84.43;101765.88;696361;28;1894;-62
2021/09/14 01:34:18;;;;;;;7.60;4.00;;;;;;;13.77;84.29;101762.31;696595;28;868;-62
2021/09/14 01:34:38;;;;;;;7.38;3.72;;;;;;;13.77;84.14;101767.59;696564;28;915;-64
2021/09/14 01:35:10;;;;;;;7.20;3.83;;;;;;;13.75;84.23;101769.44;696014;28;1210;-64
2021/09/14 01:35:31;;;;;;;6.80;3.85;;;;;;;13.73;84.41;101763.34;696231;28;1069;-64
2021/09/14 01:35:53;;;;;;;6.85;3.92;;;;;;;13.71;84.34;101767.84;695941;28;1623;-63
2021/09/14 01:36:14;;;;;;;7.93;3.90;;;;;;;13.75;84.23;101774.75;696294;28;915;-63
2021/09/14 01:36:34;;;;;;;8.80;3.92;;;;;;;13.75;84.27;101774.75;696224;28;833;-64
2021/09/14 01:36:54;;;;;;;7.83;4.20;;;;;;;13.74;84.22;101764.22;696313;28;1033;-64
2021/09/14 01:37:17;;;;;;;7.88;4.10;;;;;;;13.73;84.21;101768.66;694721;28;1522;-64
2021/09/14 01:37:38;;;;;;;7.35;4.15;;;;;;;13.74;84.29;101761.56;693616;28;1151;-65
2021/09/14 01:37:59;;;;;;;6.78;3.97;;;;;;;13.76;84.25;101770.28;693586;28;1518;-63
2021/09/14 01:38:19;;;;;;;6.70;4.00;;;;;;;13.74;84.30;101773.03;693770;28;907;-63
2021/09/14 01:38:40;;;;;;;6.97;4.20;;;;;;;13.74;84.31;101764.22;693576;28;974;-63
2021/09/14 01:39:00;;;;;;;6.87;4.30;;;;;;;13.72;84.14;101766.91;693717;28;869;-63
2021/09/14 01:39:20;;;;;;;6.30;3.83;;;;;;;13.74;84.36;101773.03;696229;28;1434;-63
2021/09/14 01:39:40;;;;;;;6.50;4.20;;;;;;;13.74;84.27;101767.72;696326;28;1346;-63
2021/09/14 01:40:01;;;;;;;6.87;4.10;;;;;;;13.75;84.12;101772.09;696397;28;983;-64
2021/09/14 01:40:21;;;;;;;6.53;4.07;;;;;;;13.73;84.23;101771.31;696511;28;871;-63
2021/09/14 01:40:46;;;;;;;6.77;3.87;;;;;;;13.73;84.07;101766.00;696323;28;828;-63
2021/09/14 01:41:07;;;;;;;7.22;3.95;;;;;;;13.71;83.87;101765.19;696378;28;888;-63
2021/09/14 01:41:27;;;;;;;7.17;3.90;;;;;;;13.73;84.01;101767.81;696465;28;946;-63
2021/09/14 01:41:47;;;;;;;7.80;4.10;;;;;;;13.71;84.13;101773.13;696407;28;789;-64
2021/09/14 01:42:08;;;;;;;7.80;4.23;;;;;;;13.71;84.13;101773.13;696482;28;999;-64
2021/09/14 01:42:28;;;;;;;7.43;4.17;;;;;;;13.68;84.42;101765.31;696406;28;804;-64
2021/09/14 01:42:48;;;;;;;7.00;3.70;;;;;;;13.65;84.27;101768.09;695875;28;1251;-63
2021/09/14 01:43:08;;;;;;;6.90;3.88;;;;;;;13.63;84.37;101769.94;696492;28;851;-64
2021/09/14 01:43:29;;;;;;;7.37;3.83;;;;;;;13.63;84.25;101762.00;696320;28;845;-63
2021/09/14 01:43:50;;;;;;;8.13;4.30;;;;;;;13.63;84.28;101766.44;694839;28;1494;-63
2021/09/14 01:44:10;;;;;;;8.18;4.55;;;;;;;13.64;84.60;101766.38;693692;28;864;-62